createdAt,value
2022-10-23T00:02:10.087Z,17.09
2022-10-23T00:04:37.837Z,17.08
2022-10-23T00:07:06.896Z,17.08
2022-10-23T00:09:34.953Z,17.06
2022-10-23T00:12:05.099Z,17.02
2022-10-23T00:14:32.794Z,17.01
2022-10-23T00:17:00.527Z,17.03
2022-10-23T00:19:29.570Z,17.00
2022-10-23T00:21:57.252Z,17.01
2022-10-23T00:24:26.257Z,16.96
2022-10-23T00:26:53.959Z,16.96
2022-10-23T00:29:21.866Z,16.99
2022-10-23T00:31:49.544Z,16.95
2022-10-23T00:34:17.278Z,16.89
2022-10-23T00:36:44.978Z,16.85
2022-10-23T00:39:13.698Z,16.87
2022-10-23T00:41:44.834Z,16.85
2022-10-23T00:44:51.115Z,16.83
2022-10-23T00:47:19.094Z,16.81
2022-10-23T00:49:46.851Z,16.86
2022-10-23T00:52:16.660Z,16.82
2022-10-23T00:54:45.488Z,16.76
2022-10-23T00:57:15.988Z,16.75
2022-10-23T00:59:43.835Z,16.83
2022-10-23T01:02:11.687Z,16.68
2022-10-23T01:04:39.839Z,16.70
2022-10-23T01:07:13.977Z,16.64
2022-10-23T01:09:49.968Z,16.58
2022-10-23T01:12:25.360Z,16.62
2022-10-23T01:15:03.077Z,16.55
2022-10-23T01:17:38.556Z,16.60
2022-10-23T01:20:19.817Z,16.55
2022-10-23T01:23:11.633Z,16.48
2022-10-23T01:25:56.476Z,16.51
2022-10-23T01:28:31.653Z,16.46
2022-10-23T01:31:00.861Z,16.47
2022-10-23T01:33:32.696Z,16.48
2022-10-23T01:36:06.290Z,16.45
2022-10-23T01:38:39.128Z,16.45
2022-10-23T01:41:12.448Z,16.42
2022-10-23T01:43:44.664Z,16.44
2022-10-23T01:46:15.655Z,16.46
2022-10-23T01:48:45.848Z,16.40
2022-10-23T01:51:14.719Z,16.44
2022-10-23T01:53:44.579Z,16.37
2022-10-23T01:56:13.688Z,16.38
2022-10-23T01:58:45.556Z,16.36
2022-10-23T02:01:14.852Z,16.37
2022-10-23T02:03:45.526Z,16.36
2022-10-23T02:06:15.082Z,16.38
2022-10-23T02:08:43.118Z,16.34
2022-10-23T02:11:12.344Z,16.31
2022-10-23T02:13:46.602Z,16.33
2022-10-23T02:16:20.431Z,16.30
2022-10-23T02:18:54.358Z,16.30
2022-10-23T02:21:27.033Z,16.29
2022-10-23T02:23:58.025Z,16.24
2022-10-23T02:26:28.543Z,16.25
2022-10-23T02:29:00.102Z,16.19
2022-10-23T02:31:29.611Z,16.13
2022-10-23T02:33:57.349Z,16.11
2022-10-23T02:36:25.093Z,16.08
2022-10-23T02:38:52.953Z,16.04
2022-10-23T02:41:28.913Z,16.04
2022-10-23T02:44:15.785Z,16.03
2022-10-23T02:46:51.305Z,16.06
2022-10-23T02:49:25.890Z,16.04
2022-10-23T02:51:59.185Z,16.01
2022-10-23T02:54:35.391Z,15.96
2022-10-23T02:57:05.065Z,15.94
2022-10-23T02:59:38.748Z,15.91
2022-10-23T03:02:10.331Z,15.90
2022-10-23T03:04:39.605Z,15.89
2022-10-23T03:07:07.376Z,15.91
2022-10-23T03:09:35.082Z,15.84
2022-10-23T03:12:02.777Z,15.84
2022-10-23T03:14:30.477Z,15.76
2022-10-23T03:16:59.645Z,15.78
2022-10-23T03:19:27.474Z,15.87
2022-10-23T03:21:55.389Z,15.82
2022-10-23T03:24:23.193Z,15.76
2022-10-23T03:26:51.038Z,15.73
2022-10-23T03:29:18.844Z,15.71
2022-10-23T03:31:46.533Z,15.69
2022-10-23T03:34:15.677Z,15.69
2022-10-23T03:36:43.360Z,15.69
2022-10-23T03:39:11.096Z,15.71
2022-10-23T03:41:38.761Z,15.72
2022-10-23T03:44:07.379Z,15.69
2022-10-23T03:46:35.136Z,15.62
2022-10-23T03:49:02.803Z,15.67
2022-10-23T03:51:32.224Z,15.60
2022-10-23T03:53:59.884Z,15.54
2022-10-23T03:56:27.780Z,15.58
2022-10-23T03:58:55.529Z,15.54
2022-10-23T04:01:23.382Z,15.56
2022-10-23T04:03:51.178Z,15.61
2022-10-23T04:06:19.129Z,15.64
2022-10-23T04:08:48.342Z,15.62
2022-10-23T04:11:16.146Z,15.58
2022-10-23T04:13:43.891Z,15.54
2022-10-23T04:16:11.594Z,15.60
2022-10-23T04:18:41.205Z,15.46
2022-10-23T04:21:09.224Z,15.42
2022-10-23T04:23:36.921Z,15.40
2022-10-23T04:26:06.164Z,15.43
2022-10-23T04:28:33.805Z,15.41
2022-10-23T04:31:02.701Z,15.38
2022-10-23T04:33:31.001Z,15.40
2022-10-23T04:35:58.652Z,15.46
2022-10-23T04:38:26.534Z,15.46
2022-10-23T04:40:54.377Z,15.49
2022-10-23T04:43:23.739Z,15.42
2022-10-23T04:45:51.681Z,15.32
2022-10-23T04:48:19.370Z,15.32
2022-10-23T04:50:56.185Z,15.30
2022-10-23T04:53:24.242Z,15.24
2022-10-23T04:55:52.433Z,15.19
2022-10-23T04:58:20.447Z,15.19
2022-10-23T05:00:50.341Z,15.14
2022-10-23T05:03:18.795Z,15.16
2022-10-23T05:05:47.111Z,15.23
2022-10-23T05:08:17.908Z,15.24
2022-10-23T05:10:46.076Z,15.20
2022-10-23T05:13:13.841Z,15.25
2022-10-23T05:18:20.200Z,15.20
2022-10-23T05:20:49.676Z,15.18
2022-10-23T05:23:19.521Z,15.26
2022-10-23T05:25:47.197Z,15.16
2022-10-23T05:28:14.900Z,15.17
2022-10-23T05:30:43.050Z,15.17
2022-10-23T05:33:11.226Z,15.12
2022-10-23T05:35:40.745Z,15.08
2022-10-23T05:38:08.780Z,15.12
2022-10-23T05:40:36.536Z,15.18
2022-10-23T05:43:04.308Z,15.15
2022-10-23T05:45:32.269Z,15.05
2022-10-23T05:48:10.692Z,15.00
2022-10-23T05:50:49.149Z,15.14
2022-10-23T05:53:16.969Z,14.85
2022-10-23T05:55:44.645Z,15.02
2022-10-23T05:58:13.838Z,14.96
2022-10-23T06:00:41.514Z,15.05
2022-10-23T06:03:09.178Z,15.04
2022-10-23T06:05:36.893Z,14.89
2022-10-23T06:08:07.282Z,14.90
2022-10-23T06:10:37.743Z,14.94
2022-10-23T06:13:09.686Z,14.90
2022-10-23T06:15:38.213Z,14.93
2022-10-23T06:18:06.553Z,14.95
2022-10-23T06:20:36.484Z,14.92
2022-10-23T06:23:04.398Z,14.85
2022-10-23T06:25:33.631Z,14.86
2022-10-23T06:28:01.276Z,14.92
2022-10-23T06:30:29.705Z,14.88
2022-10-23T06:32:57.469Z,14.81
2022-10-23T06:35:25.278Z,14.83
2022-10-23T06:37:52.969Z,14.82
2022-10-23T06:40:20.657Z,14.81
2022-10-23T06:42:49.755Z,14.85
2022-10-23T06:45:17.798Z,14.83
2022-10-23T06:47:45.710Z,14.80
2022-10-23T06:50:15.486Z,14.85
2022-10-23T06:52:46.874Z,14.79
2022-10-23T06:55:15.489Z,14.80
2022-10-23T06:57:43.435Z,14.78
2022-10-23T07:00:14.218Z,14.91
2022-10-23T07:02:42.166Z,14.86
2022-10-23T07:05:13.504Z,14.86
2022-10-23T07:07:41.739Z,14.82
2022-10-23T07:10:09.684Z,14.82
2022-10-23T07:12:37.421Z,14.73
2022-10-23T07:15:05.932Z,14.71
2022-10-23T07:17:34.925Z,14.80
2022-10-23T07:20:04.860Z,14.69
2022-10-23T07:22:32.664Z,14.77
2022-10-23T07:25:00.470Z,14.80
2022-10-23T07:27:30.052Z,14.75
2022-10-23T07:29:57.746Z,14.65
2022-10-23T07:32:28.025Z,14.81
2022-10-23T07:34:57.097Z,14.77
2022-10-23T07:37:24.931Z,14.48
2022-10-23T07:39:52.588Z,14.39
2022-10-23T07:42:20.246Z,14.52
2022-10-23T07:44:47.917Z,14.46
2022-10-23T07:47:15.643Z,14.36
2022-10-23T07:49:43.337Z,14.52
2022-10-23T07:52:12.537Z,14.65
2022-10-23T07:54:40.297Z,14.53
2022-10-23T07:57:08.063Z,14.70
2022-10-23T07:59:37.972Z,14.75
2022-10-23T08:02:06.044Z,14.88
2022-10-23T08:04:33.766Z,14.78
2022-10-23T08:07:03.044Z,14.88
2022-10-23T08:09:34.349Z,14.91
2022-10-23T08:12:03.102Z,14.99
2022-10-23T08:14:30.774Z,14.98
2022-10-23T08:16:58.536Z,15.09
2022-10-23T08:19:26.280Z,15.02
2022-10-23T08:21:57.102Z,14.97
2022-10-23T08:24:24.909Z,15.12
2022-10-23T08:26:53.996Z,15.17
2022-10-23T08:29:21.761Z,15.12
2022-10-23T08:31:49.507Z,15.21
2022-10-23T08:34:18.793Z,15.32
2022-10-23T08:36:46.553Z,15.31
2022-10-23T08:39:23.228Z,15.39
2022-10-23T08:41:59.693Z,15.46
2022-10-23T08:44:31.987Z,15.41
2022-10-23T08:47:03.575Z,15.54
2022-10-23T08:49:37.695Z,15.52
2022-10-23T08:52:14.048Z,15.45
2022-10-23T08:54:51.013Z,15.53
2022-10-23T08:57:23.209Z,15.54
2022-10-23T08:59:53.962Z,15.51
2022-10-23T09:02:23.397Z,15.63
2022-10-23T09:04:53.206Z,15.71
2022-10-23T09:07:26.450Z,15.67
2022-10-23T09:10:03.537Z,15.43
2022-10-23T09:12:32.688Z,15.45
2022-10-23T09:15:08.345Z,15.54
2022-10-23T09:17:38.976Z,15.30
2022-10-23T09:20:14.185Z,15.42
2022-10-23T09:22:42.249Z,15.40
2022-10-23T09:25:11.575Z,15.39
2022-10-23T09:27:49.513Z,15.39
2022-10-23T09:30:28.004Z,15.46
2022-10-23T09:32:55.748Z,15.52
2022-10-23T09:35:24.317Z,15.62
2022-10-23T09:37:53.359Z,15.51
2022-10-23T09:40:28.907Z,15.71
2022-10-23T09:43:00.134Z,15.74
2022-10-23T09:45:31.512Z,15.72
2022-10-23T09:48:07.250Z,15.85
2022-10-23T09:50:34.909Z,15.93
2022-10-23T09:53:02.753Z,15.85
2022-10-23T09:55:30.902Z,15.79
2022-10-23T09:57:59.945Z,15.97
2022-10-23T10:00:28.512Z,15.92
2022-10-23T10:02:58.657Z,16.02
2022-10-23T10:05:28.517Z,16.08
2022-10-23T10:08:03.573Z,16.05
2022-10-23T10:10:35.942Z,15.98
2022-10-23T10:13:14.198Z,16.04
2022-10-23T10:15:48.659Z,16.11
2022-10-23T10:18:19.717Z,16.10
2022-10-23T10:20:57.168Z,16.11
2022-10-23T10:23:31.115Z,16.13
2022-10-23T10:26:05.742Z,16.24
2022-10-23T10:28:48.220Z,16.24
2022-10-23T10:31:20.881Z,16.22
2022-10-23T10:33:54.997Z,16.28
2022-10-23T10:36:33.729Z,16.21
2022-10-23T10:39:04.501Z,16.25
2022-10-23T10:41:44.381Z,16.27
2022-10-23T10:44:37.553Z,16.35
2022-10-23T10:47:17.140Z,16.34
2022-10-23T10:49:54.416Z,16.38
2022-10-23T10:52:28.243Z,16.43
2022-10-23T10:55:00.741Z,16.45
2022-10-23T10:57:33.298Z,16.42
2022-10-23T11:00:06.407Z,16.56
2022-10-23T11:02:39.938Z,16.54
2022-10-23T11:05:16.011Z,16.58
2022-10-23T11:07:55.372Z,16.64
2022-10-23T11:10:23.244Z,16.63
2022-10-23T11:12:51.962Z,16.70
2022-10-23T11:15:23.730Z,16.73
2022-10-23T11:17:55.413Z,16.77
2022-10-23T11:20:32.427Z,16.83
2022-10-23T11:23:07.065Z,16.81
2022-10-23T11:25:51.638Z,16.84
2022-10-23T11:28:26.997Z,16.78
2022-10-23T11:31:11.866Z,16.78
2022-10-23T11:34:05.257Z,16.81
2022-10-23T11:36:44.943Z,16.86
2022-10-23T11:39:22.075Z,16.91
2022-10-23T11:41:52.317Z,16.93
2022-10-23T11:44:29.060Z,16.97
2022-10-23T11:47:06.952Z,16.91
2022-10-23T11:49:34.616Z,16.97
2022-10-23T11:52:02.816Z,16.94
2022-10-23T11:54:30.937Z,16.94
2022-10-23T11:57:12.793Z,17.03
2022-10-23T11:59:52.246Z,17.00
2022-10-23T12:02:32.551Z,16.98
2022-10-23T12:05:04.520Z,16.94
2022-10-23T12:07:34.469Z,16.94
2022-10-23T12:10:04.721Z,17.06
2022-10-23T12:12:34.179Z,17.06
2022-10-23T12:15:19.790Z,17.06
2022-10-23T12:17:50.930Z,17.10
2022-10-23T12:20:31.874Z,17.15
2022-10-23T12:23:08.996Z,17.19
2022-10-23T12:25:43.560Z,17.23
2022-10-23T12:28:20.449Z,17.28
2022-10-23T12:30:57.229Z,17.18
2022-10-23T12:33:32.714Z,17.26
2022-10-23T12:36:22.428Z,17.20
2022-10-23T12:38:50.701Z,17.27
2022-10-23T12:41:20.279Z,17.27
2022-10-23T12:43:52.910Z,17.37
2022-10-23T12:46:32.509Z,17.37
2022-10-23T12:49:03.867Z,17.43
2022-10-23T12:51:33.141Z,17.36
2022-10-23T12:54:03.946Z,17.42
2022-10-23T12:56:36.731Z,17.45
2022-10-23T12:59:11.521Z,17.40
2022-10-23T13:01:41.608Z,17.38
2022-10-23T13:07:05.896Z,17.39
2022-10-23T13:09:36.088Z,17.33
2022-10-23T13:12:06.333Z,17.37
2022-10-23T13:14:39.428Z,17.38
2022-10-23T13:17:11.369Z,17.27
2022-10-23T13:19:40.444Z,17.35
2022-10-23T13:22:18.328Z,17.35
2022-10-23T13:24:46.127Z,17.31
2022-10-23T13:27:26.641Z,17.40
2022-10-23T13:29:54.402Z,17.44
2022-10-23T13:32:24.225Z,17.28
2022-10-23T13:35:04.057Z,17.31
2022-10-23T13:37:38.221Z,17.27
2022-10-23T13:40:09.608Z,17.22
2022-10-23T13:42:37.336Z,17.23
2022-10-23T13:45:06.855Z,17.26
2022-10-23T13:47:34.503Z,17.33
2022-10-23T13:50:03.544Z,17.33
2022-10-23T13:52:31.243Z,17.23
2022-10-23T13:54:58.889Z,17.22
2022-10-23T13:57:27.027Z,17.30
2022-10-23T13:59:54.693Z,17.39
2022-10-23T14:02:24.868Z,17.30
2022-10-23T14:04:53.433Z,17.35
2022-10-23T14:07:22.451Z,17.23
2022-10-23T14:09:50.703Z,17.23
2022-10-23T14:12:18.585Z,17.31
2022-10-23T14:14:46.244Z,17.28
2022-10-23T14:17:13.952Z,17.28
2022-10-23T14:19:42.073Z,17.24
2022-10-23T14:22:09.794Z,17.29
2022-10-23T14:24:38.893Z,17.35
2022-10-23T14:27:06.579Z,17.29
2022-10-23T14:29:34.356Z,17.35
2022-10-23T14:32:02.004Z,17.27
2022-10-23T14:34:29.796Z,17.24
2022-10-23T14:37:08.165Z,17.20
2022-10-23T14:39:36.732Z,17.25
2022-10-23T14:42:05.811Z,17.26
2022-10-23T14:44:33.531Z,17.22
2022-10-23T14:47:03.026Z,17.28
2022-10-23T14:49:31.065Z,17.20
2022-10-23T14:51:58.749Z,17.29
2022-10-23T14:54:28.114Z,17.27
2022-10-23T14:56:55.805Z,17.26
2022-10-23T14:59:24.938Z,17.34
2022-10-23T15:04:25.408Z,17.29
2022-10-23T15:06:54.008Z,17.28
2022-10-23T15:09:21.670Z,17.23
2022-10-23T15:11:49.403Z,17.23
2022-10-23T15:14:17.073Z,17.30
2022-10-23T15:16:46.103Z,17.20
2022-10-23T15:19:18.413Z,17.22
2022-10-23T15:21:47.632Z,17.22
2022-10-23T15:24:15.526Z,17.27
2022-10-23T15:26:44.193Z,17.24
2022-10-23T15:29:15.021Z,17.23
2022-10-23T15:31:46.714Z,17.27
2022-10-23T15:34:16.546Z,17.24
2022-10-23T15:36:44.802Z,17.24
2022-10-23T15:39:13.314Z,17.23
2022-10-23T15:41:42.277Z,17.26
2022-10-23T15:44:12.197Z,17.23
2022-10-23T15:46:39.945Z,17.29
2022-10-23T15:49:10.437Z,17.19
2022-10-23T15:51:38.729Z,17.23
2022-10-23T15:54:06.848Z,17.22
2022-10-23T15:56:34.889Z,17.24
2022-10-23T15:59:06.194Z,17.23
2022-10-23T16:01:34.072Z,17.12
2022-10-23T16:04:03.005Z,17.08
2022-10-23T16:06:32.296Z,17.04
2022-10-23T16:09:00.193Z,17.01
2022-10-23T16:11:30.002Z,17.03
2022-10-23T16:13:58.802Z,17.00
2022-10-23T16:16:27.234Z,17.03
2022-10-23T16:18:54.951Z,17.00
2022-10-23T16:21:24.084Z,17.01
2022-10-23T16:23:54.302Z,17.00
2022-10-23T16:26:22.519Z,16.98
2022-10-23T16:28:53.651Z,17.01
2022-10-23T16:31:23.204Z,16.97
2022-10-23T16:33:51.483Z,16.99
2022-10-23T16:36:19.706Z,16.95
2022-10-23T16:38:47.376Z,16.94
2022-10-23T16:41:16.633Z,16.94
2022-10-23T16:43:44.314Z,16.88
2022-10-23T16:46:13.999Z,16.88
2022-10-23T16:48:42.477Z,16.89
2022-10-23T16:51:12.385Z,16.79
2022-10-23T16:53:40.416Z,16.80
2022-10-23T16:56:10.508Z,16.76
2022-10-23T16:58:41.644Z,16.71
2022-10-23T17:01:14.946Z,16.75
2022-10-23T17:03:44.158Z,16.72
2022-10-23T17:06:13.825Z,16.71
2022-10-23T17:08:41.796Z,16.80
2022-10-23T17:11:11.448Z,16.75
2022-10-23T17:13:42.555Z,16.79
2022-10-23T17:16:12.049Z,16.76
2022-10-23T17:18:43.746Z,16.82
2022-10-23T17:21:12.308Z,16.75
2022-10-23T17:23:39.998Z,16.69
2022-10-23T17:26:08.248Z,16.71
2022-10-23T17:28:39.708Z,16.74
2022-10-23T17:31:14.126Z,16.78
2022-10-23T17:33:42.244Z,16.74
2022-10-23T17:36:10.641Z,16.67
2022-10-23T17:38:38.872Z,16.71
2022-10-23T17:41:08.134Z,16.66
2022-10-23T17:43:37.097Z,16.75
2022-10-23T17:46:08.253Z,16.67
2022-10-23T17:48:39.183Z,16.71
2022-10-23T17:51:09.411Z,16.66
2022-10-23T17:53:38.730Z,16.72
2022-10-23T17:56:08.452Z,16.77
2022-10-23T17:58:36.365Z,16.80
2022-10-23T18:01:06.572Z,16.73
2022-10-23T18:03:35.197Z,16.77
2022-10-23T18:06:09.037Z,16.79
2022-10-23T18:08:37.279Z,16.72
2022-10-23T18:11:05.214Z,16.68
2022-10-23T18:13:33.692Z,16.66
2022-10-23T18:16:03.098Z,16.67
2022-10-23T18:18:30.937Z,16.81
2022-10-23T18:20:58.740Z,16.69
2022-10-23T18:23:28.603Z,16.77
2022-10-23T18:25:56.539Z,16.84
2022-10-23T18:28:24.430Z,16.67
2022-10-23T18:30:54.783Z,16.64
2022-10-23T18:33:26.434Z,16.68
2022-10-23T18:35:54.137Z,16.71
2022-10-23T18:38:21.860Z,16.70
2022-10-23T18:40:55.333Z,16.71
2022-10-23T18:43:41.967Z,16.73
2022-10-23T18:46:11.588Z,16.78
2022-10-23T18:48:39.262Z,16.97
2022-10-23T18:51:15.708Z,16.87
2022-10-23T18:53:46.480Z,16.92
2022-10-23T18:56:16.163Z,16.78
2022-10-23T18:58:43.942Z,16.71
2022-10-23T19:01:11.725Z,16.62
2022-10-23T19:03:39.508Z,16.66
2022-10-23T19:06:07.633Z,16.60
2022-10-23T19:08:36.791Z,16.68
2022-10-23T19:11:06.329Z,16.60
2022-10-23T19:13:39.037Z,16.53
2022-10-23T19:16:09.708Z,16.56
2022-10-23T19:18:38.612Z,16.59
2022-10-23T19:21:07.587Z,16.60
2022-10-23T19:23:36.406Z,16.53
2022-10-23T19:26:08.584Z,16.55
2022-10-23T19:28:38.269Z,16.44
2022-10-23T19:31:07.505Z,16.55
2022-10-23T19:33:35.987Z,16.53
2022-10-23T19:36:05.417Z,16.59
2022-10-23T19:38:34.072Z,16.44
2022-10-23T19:41:03.880Z,16.44
2022-10-23T19:43:31.578Z,16.36
2022-10-23T19:46:09.353Z,16.36
2022-10-23T19:48:42.279Z,16.38
2022-10-23T19:51:10.064Z,16.53
2022-10-23T19:53:37.849Z,16.49
2022-10-23T19:56:07.897Z,16.42
2022-10-23T19:58:35.672Z,16.35
2022-10-23T20:01:10.416Z,16.44
2022-10-23T20:03:38.803Z,16.44
2022-10-23T20:06:10.150Z,16.50
2022-10-23T20:08:37.801Z,16.62
2022-10-23T20:11:08.436Z,16.62
2022-10-23T20:13:36.656Z,16.76
2022-10-23T20:16:04.950Z,16.82
2022-10-23T20:18:34.041Z,16.61
2022-10-23T20:21:03.925Z,16.66
2022-10-23T20:23:31.588Z,16.64
2022-10-23T20:26:05.908Z,16.62
2022-10-23T20:28:34.114Z,16.65
2022-10-23T20:31:05.938Z,16.79
2022-10-23T20:33:35.056Z,16.88
2022-10-23T20:36:08.941Z,17.02
2022-10-23T20:38:37.293Z,16.96
2022-10-23T20:41:05.736Z,16.86
2022-10-23T20:43:34.540Z,16.97
2022-10-23T20:46:04.550Z,17.08
2022-10-23T20:48:35.903Z,16.97
2022-10-23T20:51:07.092Z,17.01
2022-10-23T20:53:35.611Z,17.07
2022-10-23T20:56:07.271Z,17.02
2022-10-23T20:58:35.820Z,17.07
2022-10-23T21:01:05.960Z,17.01
2022-10-23T21:03:34.020Z,16.93
2022-10-23T21:06:07.682Z,17.08
2022-10-23T21:08:37.275Z,17.11
2022-10-23T21:11:05.667Z,16.97
2022-10-23T21:13:36.338Z,16.99
2022-10-23T21:16:12.705Z,16.87
2022-10-23T21:18:46.054Z,16.93
2022-10-23T21:21:19.133Z,17.07
2022-10-23T21:23:47.744Z,17.11
2022-10-23T21:26:16.469Z,17.18
2022-10-23T21:28:55.727Z,17.10
2022-10-23T21:31:29.804Z,17.17
2022-10-23T21:33:57.565Z,17.11
2022-10-23T21:36:27.506Z,17.15
2022-10-23T21:38:56.710Z,17.24
2022-10-23T21:41:26.439Z,17.26
2022-10-23T21:43:55.214Z,17.15
2022-10-23T21:46:23.962Z,17.22
2022-10-23T21:48:51.892Z,17.28
2022-10-23T21:51:22.920Z,17.19
2022-10-23T21:53:53.029Z,17.07
2022-10-23T21:56:32.232Z,17.05
2022-10-23T21:59:01.170Z,17.01
2022-10-23T22:01:29.588Z,17.20
2022-10-23T22:03:57.782Z,16.91
2022-10-23T22:06:27.347Z,17.20
2022-10-23T22:08:58.017Z,17.17
2022-10-23T22:11:27.129Z,17.11
2022-10-23T22:13:55.022Z,17.12
2022-10-23T22:16:22.738Z,17.15
2022-10-23T22:18:50.456Z,17.16
2022-10-23T22:21:20.277Z,17.14
2022-10-23T22:23:49.722Z,17.06
2022-10-23T22:26:23.236Z,17.00
2022-10-23T22:28:51.959Z,17.05
2022-10-23T22:31:21.358Z,16.87
2022-10-23T22:33:49.305Z,16.50
2022-10-23T22:36:17.019Z,16.39
2022-10-23T22:38:47.516Z,16.34
2022-10-23T22:41:15.894Z,16.28
2022-10-23T22:43:45.044Z,16.04
2022-10-23T22:46:14.895Z,16.09
2022-10-23T22:48:42.989Z,16.13
2022-10-23T22:51:12.965Z,16.11
2022-10-23T22:53:40.725Z,16.06
2022-10-23T22:56:09.192Z,16.06
2022-10-23T22:58:37.520Z,16.06
2022-10-23T23:01:18.739Z,16.17
2022-10-23T23:03:46.947Z,16.30
2022-10-23T23:06:14.919Z,16.39
2022-10-23T23:08:43.346Z,16.23
2022-10-23T23:11:13.762Z,16.24
2022-10-23T23:13:42.302Z,16.11
2022-10-23T23:16:19.129Z,16.10
2022-10-23T23:18:47.124Z,16.33
2022-10-23T23:21:14.905Z,16.26
2022-10-23T23:23:42.785Z,16.23
2022-10-23T23:26:11.249Z,16.08
2022-10-23T23:28:38.984Z,16.08
2022-10-23T23:31:09.011Z,16.14
2022-10-23T23:33:38.263Z,16.15
2022-10-23T23:36:08.243Z,16.20
2022-10-23T23:38:36.538Z,16.08
2022-10-23T23:41:04.801Z,15.96
2022-10-23T23:43:32.586Z,15.93
2022-10-23T23:46:00.503Z,16.10
2022-10-23T23:48:30.870Z,15.92
2022-10-23T23:51:00.025Z,16.00
2022-10-23T23:53:27.824Z,15.95
2022-10-23T23:55:56.101Z,15.97
2022-10-23T23:58:32.072Z,15.89
